x

Long Key, Fl (lonf1) Weather Station

12:00pm - Sat 25th Oct 2014 All times are CDT. -4 hours from GMT.

  • Wind
    11mph, 13mph gusts
  • Sea Temp 76°f
  • Air Temp 75°f
  • Sea Pressure 1014.2mb
  • Long Key, Fl
  • Long Key, Fl

More Historic Weather Station data

Upgrade to MSW Pro to gain access to the past 30 days of data for over 8000 Wavebouys and Weather Stations around the globe.

Join Pro

Comparision Forecast

View Surf forecast
   
Sat 10/25 12:00pm 11 13 mph 1014.2mb 76f 75f
11:00am 16 17 mph 1014.3mb 76f 74f
10:00am 16 18 mph 1014.1mb 76f 73f
9:00am 21 23 mph 1013.9mb 75f 72f
8:00am 21 24 mph 1013.2mb 76f 73f
7:00am 22 26 mph 1012.4mb 76f 72f
6:00am 23 25 mph 1011.8mb 76f 72f
5:00am 24 26 mph 1011.5mb 76f 73f
4:00am 23 26 mph 1011.4mb 76f 73f
3:00am 24 28 mph 1011.6mb 77f 73f
2:00am 24 26 mph 1012.1mb 77f 74f
1:00am 23 25 mph 1012mb 77f 74f
12:00am 23 25 mph 1011.8mb 77f 75f
Fri 10/24 11:00pm 22 24 mph 1011.8mb 78f 76f
10:00pm 21 24 mph 1011.3mb 78f 77f
9:00pm 21 24 mph 1010.9mb 78f 77f
8:00pm 23 25 mph 1010.3mb 78f 78f
7:00pm 22 25 mph 1009.8mb 78f 78f
6:00pm 22 24 mph 1009.1mb 78f 77f
5:00pm 28 31 mph 1009.3mb 78f 76f
4:00pm 29 32 mph 1008.7mb 78f 77f
3:00pm 30 34 mph 1009.1mb 78f 75f
2:00pm 26 29 mph 1009.3mb 78f 76f
1:00pm 28 32 mph 1009.7mb 78f 76f
12:00pm 20 22 mph 1010.8mb 78f 76f
11:00am 17 21 mph 1011.4mb 78f 76f
10:00am 16 18 mph 1011.3mb 78f 75f
9:00am 20 23 mph 1010.9mb 78f 75f
8:00am 23 25 mph 1010.4mb 78f 75f
7:00am 18 21 mph 1010.1mb 78f 76f
6:00am 20 22 mph 1009.4mb 78f 76f
5:00am 18 21 mph 1009.6mb 78f 76f
4:00am 16 18 mph 1009.9mb 78f 76f
3:00am 18 20 mph 1010.3mb 78f 75f
2:00am 16 18 mph 1011.1mb 78f 75f
1:00am 17 18 mph 1011.7mb 78f 77f
12:00am 20 23 mph 1012.2mb 78f 77f
Thu 10/23 11:00pm 18 20 mph 1012.5mb 78f 77f
10:00pm 17 20 mph 1012.6mb 78f 77f
9:00pm 18 20 mph 1012.1mb 78f 77f
8:00pm 18 22 mph 1011.5mb 78f 76f
7:00pm 18 21 mph 1011.5mb 78f 77f
6:00pm 18 20 mph 1011.3mb 79f 76f
5:00pm 16 18 mph 1011.1mb 79f 77f
4:00pm 13 15 mph 1010.9mb 79f 76f
3:00pm 17 18 mph 1011.5mb 79f 75f
2:00pm 15 17 mph 1011.7mb 79f 76f
1:00pm 16 17 mph 1012.5mb 79f 78f
12:00pm 14 16 mph 1013.2mb 78f 79f
11:00am 11 14 mph 1013.5mb 78f 78f
10:00am 10 13 mph 1013.4mb 78f 78f
9:00am 10 13 mph 1013mb 78f 78f
8:00am 11 13 mph 1012.6mb 78f 77f
7:00am 15 18 mph 1011.9mb 78f 77f
6:00am 22 23 mph 1011.7mb 78f 76f
5:00am 17 18 mph 1011.9mb 78f 76f
4:00am 17 20 mph 1012.4mb 79f 76f
3:00am 14 15 mph 1012.7mb 79f 77f
2:00am 13 14 mph 1013.5mb 79f 77f
1:00am 9 10 mph 1014.3mb 79f 77f
12:00am 9 10 mph 1014.3mb 79f 77f
Wed 10/22 11:00pm 14 15 mph 1014.1mb 79f 77f
10:00pm 10 11 mph 1014.1mb 79f 77f
9:00pm 9 10 mph 1014.5mb 79f 76f
8:00pm 8 9 mph 1014.9mb 79f 76f
7:00pm 7
mph
1014.5mb 79f 76f
6:00pm 7 8 mph 1013.6mb 79f 76f
5:00pm 10 13 mph 1013.5mb 79f 76f
4:00pm 9 10 mph 1013.5mb 80f 76f
3:00pm 8 9 mph 1013.5mb 80f 76f
2:00pm 13 15 mph 1014mb 80f 76f
1:00pm 9 10 mph 1014.7mb 80f 79f
12:00pm 9 10 mph 1015.4mb 80f 78f
11:00am 7 8 mph 1015.4mb 79f 78f
10:00am 7
mph
1015.4mb 79f 78f
9:00am 7 8 mph 1015.2mb 79f 78f
8:00am 7 8 mph 1014.6mb 79f 78f
7:00am 2 3 mph 1014mb 79f 78f
6:00am 11 14 mph 1013.7mb 80f 77f
5:00am 3 5 mph 1013.4mb 80f 79f
4:00am 5 6 mph 1013.2mb 79f 79f
3:00am 6 7 mph 1013.2mb 80f 78f
2:00am 7 8 mph 1014mb 80f 78f
1:00am 8 9 mph 1014.3mb 80f 78f
12:00am 8 9 mph 1015mb 80f 77f
Tue 10/21 11:00pm 7 8 mph 1015.8mb 80f 77f
10:00pm 7 8 mph 1015.9mb 80f 77f
9:00pm 9 10 mph 1015.2mb 80f 77f
8:00pm 5 6 mph 1014.8mb 80f 78f
7:00pm 2 3 mph 1014mb 80f 77f
6:00pm 3
mph
1013.5mb 80f 77f